Aeroporto :
LOGIN :

Iscrizione | Disclaimer

   EN    FR    IT 

 










Sommario :    VFR   VFR Marginale   IFR   IFR Intensivo   IFR Molto Intensivo
Visibilità : 
Base nubi : 
>= 8 km
>= 3000ft
5 / 8 km
1000 / 3000 ft
1500m / 5 km
500 / 1000 ft
800 / 1500m
200 / 500 ft
< 800m
< 200 ft
Simboli :   Temporali  Nebbia  Neve Forte  Precipitazioni Forti  Vento > 20 kt
SIGMETs :   Varie  Temporali  Ghiacco  Turbolenza  Onda orograficha  Ceneri Vulcaniche







- Altitudine del aeroporto : 327 ft
- Codice IATA : BHX
- Carte del aeroporto


EGBB - Birmingham

ULTIMO METAR :
  • 230350Z 33008KT CAVOK 08/05 Q1029

METARs OBSOLETI :
  • 230320Z 33008KT 9999 FEW038 09/05 Q1029
  • 230250Z 33010KT 9999 BKN038 09/05 Q1029
  • 230220Z 32007KT 9999 FEW023 OVC037 09/05 Q1029
  • 230150Z 34009KT 9999 OVC034 09/05 Q1028
  • 230120Z 33008KT 9999 OVC035 10/05 Q1028

TAF TAF EGBB
Valido dal 23 a 00 ore il 24 a 00 ore UTC


222304Z 2300/2324 26010KT 9999 FEW035
BECMG 2300/2303 34004KT
ATIS : +44 121 780 0910
Nessun NOTAM noto per questo aeroporto.



MetMap, La meteo Aeronautica in un colpo d'occhio ! - Copyright ORBIFLY Dicembre 2007 - Disclaimer

ORBIFLY MET'MAP TEAM :

Programmazione e sviluppo : Alexandra Zaïnal
Concezione e sviluppo : Baudouin d'Aumeries
Co-Programmazione e sviluppo : Marc-Olivier Méhu
Supporto tecnico e logistico : Manuel Goepfert
Aiuto per la traduzione : Arnaldo La Scala

Contatto : metmap@orbifly.com




FONTI E CREDITI :

   NOAA